Time;durP1;ratioP1;P1;durP2;ratioP2;P2;SDS_P1;SDS_P2;PMS_P1;PMS_P2;Temp;Humidity;BMP_temperature;BMP_pressure;BME280_temperature;BME280_humidity;BME280_pressure;Samples;Min_cycle;Max_cycle;Signal;HPM_P1;HPM_P2
2022/04/28 00:00:31;;;;;;;191.17;184.10;;;6.00;90.40;;;;;;4943176;28;20475;-81
2022/04/28 00:02:58;;;;;;;234.23;225.93;;;6.00;90.90;;;;;;4934816;29;20468;-81
2022/04/28 00:05:25;;;;;;;286.93;276.40;;;5.90;90.90;;;;;;4946864;29;20462;-81
2022/04/28 00:07:52;;;;;;;313.17;301.30;;;5.90;91.50;;;;;;4956271;28;20456;-81
2022/04/28 00:10:19;;;;;;;332.67;319.63;;;5.80;92.20;;;;;;4955396;28;20850;-80
2022/04/28 00:12:46;;;;;;;365.57;351.87;;;5.80;92.90;;;;;;4948585;28;20850;-81
2022/04/28 00:15:13;;;;;;;387.97;372.87;;;5.60;93.70;;;;;;4936817;29;20476;-80
2022/04/28 00:17:41;;;;;;;421.73;405.00;;;5.60;94.30;;;;;;4942803;29;20452;-80
2022/04/28 00:20:09;;;;;;;442.10;423.60;;;5.50;95.10;;;;;;4955982;28;20554;-81
2022/04/28 00:22:36;;;;;;;439.30;421.00;;;5.60;96.10;;;;;;4951074;28;20456;-80
2022/04/28 00:25:04;;;;;;;452.60;433.23;;;5.60;96.40;;;;;;4936540;29;20463;-81
2022/04/28 00:27:30;;;;;;;461.00;441.40;;;5.50;96.50;;;;;;4939561;29;20452;-81
2022/04/28 00:29:57;;;;;;;441.37;423.07;;;5.60;96.60;;;;;;4955209;28;20508;-81
2022/04/28 00:32:24;;;;;;;432.27;415.67;;;5.50;96.60;;;;;;4955467;28;20462;-81
2022/04/28 00:34:52;;;;;;;427.70;411.43;;;5.50;96.90;;;;;;4940401;29;20484;-81
2022/04/28 00:37:19;;;;;;;470.17;450.97;;;5.50;97.10;;;;;;4938682;29;20540;-79
2022/04/28 00:39:46;;;;;;;470.10;451.47;;;5.40;97.30;;;;;;4956635;28;20483;-78
2022/04/28 00:42:14;;;;;;;563.13;537.87;;;5.30;98.20;;;;;;4956905;28;20983;-78
2022/04/28 00:44:41;;;;;;;599.83;571.50;;;5.30;99.20;;;;;;4938046;28;20970;-81
2022/04/28 00:47:09;;;;;;;591.43;564.13;;;5.30;99.80;;;;;;4937713;29;20968;-79
2022/04/28 00:52:23;;;;;;;646.30;614.73;;;5.10;99.90;;;;;;4956670;29;20447;-79
2022/04/28 00:54:52;;;;;;;667.60;633.73;;;5.10;99.90;;;;;;4937785;29;20480;-79
2022/04/28 00:57:20;;;;;;;649.40;618.80;;;5.00;99.90;;;;;;4937860;29;20525;-79
2022/04/28 00:59:48;;;;;;;674.10;640.80;;;5.00;99.90;;;;;;4938361;29;20492;-80
2022/04/28 01:02:18;;;;;;;695.10;660.03;;;5.10;99.90;;;;;;4937096;29;20467;-79
2022/04/28 01:04:45;;;;;;;712.87;675.57;;;4.90;99.90;;;;;;4955722;29;20452;-80
2022/04/28 01:07:12;;;;;;;752.87;709.93;;;4.90;99.90;;;;;;4956870;28;20455;-80
2022/04/28 01:09:41;;;;;;;748.20;705.30;;;4.80;99.90;;;;;;4955051;28;20480;-80
2022/04/28 01:12:09;;;;;;;769.17;724.30;;;4.70;99.90;;;;;;4956389;28;20551;-80
2022/04/28 01:14:35;;;;;;;724.87;684.47;;;4.70;99.90;;;;;;4941667;28;20484;-80
2022/04/28 01:17:03;;;;;;;733.13;693.10;;;4.70;99.90;;;;;;4937619;29;20460;-80
2022/04/28 01:19:29;;;;;;;715.17;678.97;;;4.70;99.90;;;;;;4950199;29;20475;-80
2022/04/28 01:21:58;;;;;;;734.33;695.73;;;4.70;99.90;;;;;;4956544;28;20468;-79
2022/04/28 01:24:25;;;;;;;745.70;703.50;;;4.70;99.90;;;;;;4944381;28;20876;-79
2022/04/28 01:26:54;;;;;;;792.87;745.17;;;4.80;99.90;;;;;;4937689;29;20836;-80
2022/04/28 01:29:21;;;;;;;798.80;749.23;;;4.60;99.90;;;;;;4947662;29;20475;-82
2022/04/28 01:31:48;;;;;;;779.60;733.13;;;4.70;99.90;;;;;;4956798;28;20471;-79
2022/04/28 01:34:15;;;;;;;781.10;734.70;;;4.60;99.90;;;;;;4946709;28;20452;-79
2022/04/28 01:36:42;;;;;;;766.47;723.97;;;4.70;99.90;;;;;;4937172;29;20492;-80
2022/04/28 01:39:10;;;;;;;729.33;691.23;;;5.00;99.90;;;;;;4950583;29;20476;-80
2022/04/28 01:41:37;;;;;;;727.40;689.30;;;5.00;99.90;;;;;;4956311;28;20463;-79
2022/04/28 01:44:04;;;;;;;745.10;705.03;;;5.00;99.90;;;;;;4952688;28;20456;-80
2022/04/28 01:46:31;;;;;;;749.53;708.33;;;5.10;99.90;;;;;;4956129;28;20468;-79
2022/04/28 01:48:59;;;;;;;768.57;726.27;;;5.10;99.90;;;;;;4936638;29;20495;-82
2022/04/28 01:56:55;;;;;;;720.73;684.07;;;4.90;99.90;;;;;;4940928;29;20530;-80
2022/04/28 01:59:21;;;;;;;758.63;719.27;;;4.80;99.90;;;;;;4955394;28;20837;-79
2022/04/28 02:01:48;;;;;;;760.23;719.73;;;4.80;99.90;;;;;;4951896;28;20448;-80
2022/04/28 02:04:15;;;;;;;747.53;708.73;;;4.80;99.90;;;;;;4936680;29;20465;-80
2022/04/28 02:06:43;;;;;;;764.50;723.53;;;4.70;99.90;;;;;;4938799;29;20453;-79
2022/04/28 02:09:11;;;;;;;695.73;662.23;;;4.70;99.90;;;;;;4955177;28;20842;-81
2022/04/28 02:11:38;;;;;;;720.00;684.30;;;5.00;99.90;;;;;;4954633;28;20464;-80
2022/04/28 02:14:05;;;;;;;730.53;693.27;;;4.80;99.90;;;;;;4936536;29;20515;-79
2022/04/28 02:16:32;;;;;;;793.03;748.33;;;4.80;99.90;;;;;;4937212;29;20487;-81
2022/04/28 02:18:59;;;;;;;780.70;737.20;;;4.80;99.90;;;;;;4935690;29;21035;-78
2022/04/28 02:21:25;;;;;;;787.73;743.23;;;4.80;99.90;;;;;;4936734;29;20457;-79
2022/04/28 02:23:52;;;;;;;791.57;746.03;;;4.70;99.90;;;;;;4936334;29;20457;-82
2022/04/28 02:26:20;;;;;;;820.87;772.80;;;4.80;99.90;;;;;;4937097;29;20453;-80
2022/04/28 02:28:47;;;;;;;866.40;811.73;;;4.70;99.90;;;;;;4942994;29;20472;-80
2022/04/28 02:31:14;;;;;;;874.80;819.43;;;4.60;99.90;;;;;;4955519;28;21167;-79
2022/04/28 02:33:41;;;;;;;854.87;799.47;;;4.60;99.90;;;;;;4955954;28;20493;-80
2022/04/28 02:36:08;;;;;;;863.20;808.13;;;4.50;99.90;;;;;;4953643;28;20488;-79
2022/04/28 02:38:35;;;;;;;853.57;799.97;;;4.50;99.90;;;;;;4935784;29;20487;-80
2022/04/28 02:41:02;;;;;;;866.80;812.33;;;4.40;99.90;;;;;;4936384;29;20464;-80
2022/04/28 02:43:30;;;;;;;860.50;804.70;;;4.40;99.90;;;;;;4954539;28;20525;-80
2022/04/28 02:45:58;;;;;;;877.90;821.20;;;4.30;99.90;;;;;;4955216;28;20448;-80
2022/04/28 02:48:25;;;;;;;879.90;821.30;;;4.30;99.90;;;;;;4936230;28;20488;-79
2022/04/28 02:50:52;;;;;;;910.47;847.53;;;4.10;99.90;;;;;;4936023;29;20821;-80
2022/04/28 02:53:18;;;;;;;871.03;806.93;;;4.30;99.90;;;;;;4952340;29;20466;-80
2022/04/28 02:55:45;;;;;;;847.67;784.37;;;4.10;99.90;;;;;;4954512;28;20500;-80
2022/04/28 03:00:43;;;;;;;869.63;805.83;;;4.00;99.90;;;;;;4958251;29;20459;-81
2022/04/28 03:03:11;;;;;;;840.17;774.87;;;3.90;99.90;;;;;;4960481;29;20448;-80
2022/04/28 03:10:46;;;;;;;826.70;763.20;;;4.00;99.90;;;;;;4960118;28;20459;-81
2022/04/28 03:11:14;;;;;;;834.83;770.63;;;4.10;99.90;;;;;;4959814;28;20490;-81
2022/04/28 03:13:41;;;;;;;835.47;773.00;;;4.10;99.90;;;;;;4959930;28;20457;-80
2022/04/28 03:16:09;;;;;;;854.43;789.23;;;4.10;99.90;;;;;;4959119;28;20486;-81
2022/04/28 03:18:36;;;;;;;844.77;780.13;;;4.00;99.90;;;;;;4959151;28;20487;-81
2022/04/28 03:21:03;;;;;;;846.67;782.00;;;3.90;99.90;;;;;;4958904;28;20484;-81
2022/04/28 03:23:29;;;;;;;872.40;803.40;;;3.80;99.90;;;;;;4958929;28;20527;-81
2022/04/28 03:25:56;;;;;;;844.73;778.00;;;3.80;99.90;;;;;;4959363;28;20455;-81
2022/04/28 03:28:23;;;;;;;875.80;805.80;;;3.80;99.90;;;;;;4958403;29;20461;-81
2022/04/28 03:30:51;;;;;;;878.33;806.13;;;3.70;99.90;;;;;;4958714;28;20462;-81
2022/04/28 03:33:19;;;;;;;856.23;786.17;;;3.70;99.90;;;;;;4959293;28;20448;-81
2022/04/28 03:35:45;;;;;;;865.97;793.53;;;3.70;99.90;;;;;;4959348;28;20479;-81
2022/04/28 03:38:13;;;;;;;862.03;789.13;;;3.60;99.90;;;;;;4959936;28;20460;-81
2022/04/28 03:40:40;;;;;;;863.00;790.70;;;3.70;99.90;;;;;;4959533;28;20452;-80
2022/04/28 03:43:07;;;;;;;871.70;797.53;;;3.50;99.90;;;;;;4958930;28;20957;-82
2022/04/28 03:45:34;;;;;;;874.67;800.00;;;3.70;99.90;;;;;;4958817;29;20464;-82
2022/04/28 03:48:01;;;;;;;875.13;798.17;;;3.50;99.90;;;;;;4959002;29;20471;-81
2022/04/28 03:50:31;;;;;;;865.17;789.17;;;3.50;99.90;;;;;;4967768;29;20467;-83
2022/04/28 03:52:58;;;;;;;855.37;778.47;;;3.60;99.90;;;;;;4964323;28;20497;-82
2022/04/28 03:55:25;;;;;;;883.80;806.83;;;3.50;99.90;;;;;;4956205;28;20558;-81
2022/04/28 03:57:52;;;;;;;881.93;806.13;;;3.50;99.90;;;;;;4960405;28;20551;-82
2022/04/28 04:00:20;;;;;;;883.87;810.47;;;3.40;99.90;;;;;;4957961;28;20484;-84
2022/04/28 04:02:47;;;;;;;882.83;808.30;;;3.40;99.90;;;;;;4957886;28;20827;-81
2022/04/28 04:05:14;;;;;;;886.60;811.90;;;3.30;99.90;;;;;;4959174;28;20847;-83
2022/04/28 04:07:43;;;;;;;910.03;833.00;;;3.30;99.90;;;;;;4961923;28;20462;-81
2022/04/28 04:10:11;;;;;;;894.53;817.23;;;3.30;99.90;;;;;;4962343;28;20496;-80
2022/04/28 04:12:38;;;;;;;907.90;826.30;;;3.10;99.90;;;;;;4963610;28;20902;-84
2022/04/28 04:15:06;;;;;;;872.30;791.40;;;3.30;99.90;;;;;;4962136;29;20459;-81
2022/04/28 04:17:41;;;;;;;896.93;815.57;;;3.30;99.90;;;;;;4962970;28;20480;-81
2022/04/28 04:20:12;;;;;;;883.40;802.43;;;3.30;99.90;;;;;;4963131;29;20497;-83
2022/04/28 04:22:39;;;;;;;861.80;782.17;;;3.20;99.90;;;;;;4961800;29;20466;-82
2022/04/28 04:25:08;;;;;;;853.43;773.80;;;3.30;99.90;;;;;;4962144;28;20456;-81
2022/04/28 04:27:35;;;;;;;859.80;780.80;;;3.30;99.90;;;;;;4962943;28;20546;-83
2022/04/28 04:32:17;;;;;;;848.00;770.40;;;3.30;99.90;;;;;;4959081;28;20476;-81
2022/04/28 04:32:48;;;;;;;859.47;782.20;;;3.40;99.90;;;;;;4962022;29;20480;-81
2022/04/28 04:35:16;;;;;;;865.50;787.60;;;3.40;99.90;;;;;;4962002;28;20458;-81
2022/04/28 04:37:42;;;;;;;863.07;786.40;;;3.40;99.90;;;;;;4960359;28;20462;-81
2022/04/28 04:40:12;;;;;;;853.03;776.93;;;3.40;99.90;;;;;;4962580;28;20506;-81
2022/04/28 04:42:38;;;;;;;857.63;779.80;;;3.40;99.90;;;;;;4962640;29;20456;-82
2022/04/28 04:45:07;;;;;;;860.10;782.40;;;3.50;99.90;;;;;;4959513;29;20810;-81
2022/04/28 04:47:34;;;;;;;853.00;775.50;;;3.40;99.90;;;;;;4961738;29;20444;-81
2022/04/28 04:50:01;;;;;;;855.73;778.33;;;3.50;99.90;;;;;;4960654;28;20502;-81
2022/04/28 04:52:28;;;;;;;842.67;765.43;;;3.60;99.90;;;;;;4961888;29;20459;-81
2022/04/28 04:54:55;;;;;;;835.37;757.73;;;3.60;99.90;;;;;;4963046;28;20455;-82
2022/04/28 04:57:24;;;;;;;840.83;762.53;;;3.70;99.90;;;;;;4969646;28;20515;-81
2022/04/28 04:59:51;;;;;;;841.03;765.10;;;3.70;99.90;;;;;;4961469;28;20483;-81
2022/04/28 05:02:18;;;;;;;840.67;763.70;;;3.80;99.90;;;;;;4961831;28;20451;-81
2022/04/28 05:04:45;;;;;;;854.93;776.50;;;3.90;99.90;;;;;;4961892;28;20463;-81
2022/04/28 05:07:12;;;;;;;834.97;759.10;;;4.10;99.90;;;;;;4962018;28;20455;-81
2022/04/28 05:09:40;;;;;;;846.40;770.17;;;4.10;99.90;;;;;;4961324;28;20468;-80
2022/04/28 05:12:07;;;;;;;845.77;770.10;;;4.20;99.90;;;;;;4961393;29;20452;-81
2022/04/28 05:14:35;;;;;;;837.33;762.47;;;4.30;99.90;;;;;;4962955;28;20459;-81
2022/04/28 05:17:02;;;;;;;850.50;775.20;;;4.30;99.90;;;;;;4962116;28;20845;-81
2022/04/28 05:19:30;;;;;;;846.73;771.53;;;4.40;99.90;;;;;;4961036;28;20478;-81
2022/04/28 05:21:56;;;;;;;823.17;748.77;;;4.60;99.90;;;;;;4961831;28;20459;-81
2022/04/28 05:24:23;;;;;;;812.67;739.60;;;4.70;99.90;;;;;;4961466;28;20458;-81
2022/04/28 05:26:50;;;;;;;792.23;726.30;;;5.00;99.90;;;;;;4962496;28;20466;-81
2022/04/28 05:29:17;;;;;;;788.90;732.87;;;5.20;99.90;;;;;;4961834;28;20475;-79
2022/04/28 05:31:45;;;;;;;698.03;658.33;;;5.40;99.90;;;;;;4957694;28;20451;-81
2022/04/28 05:34:12;;;;;;;590.90;562.07;;;5.80;99.90;;;;;;4956610;29;20456;-80
2022/04/28 05:36:39;;;;;;;409.50;392.33;;;6.10;99.90;;;;;;4961218;28;20502;-82
2022/04/28 05:39:06;;;;;;;183.23;174.97;;;6.40;99.90;;;;;;4961008;28;20487;-82
2022/04/28 05:41:34;;;;;;;74.67;69.27;;;6.60;99.90;;;;;;4959487;28;20452;-81
2022/04/28 05:46:47;;;;;;;39.73;35.73;;;7.20;99.90;;;;;;4956761;29;20443;-83
2022/04/28 05:49:14;;;;;;;38.60;24.07;;;7.20;99.90;;;;;;4957809;29;20472;-82
2022/04/28 05:51:41;;;;;;;31.13;22.47;;;7.50;99.90;;;;;;4963096;28;20459;-83
2022/04/28 05:54:08;;;;;;;31.27;20.40;;;7.60;97.40;;;;;;4962717;28;20483;-82
2022/04/28 05:56:35;;;;;;;32.43;21.83;;;7.80;96.00;;;;;;4963862;28;20476;-82
2022/04/28 05:59:02;;;;;;;30.17;18.70;;;7.90;94.20;;;;;;4966038;29;20486;-82
2022/04/28 06:01:29;;;;;;;26.50;20.10;;;8.10;93.10;;;;;;4967097;28;20479;-82
2022/04/28 06:03:57;;;;;;;34.53;21.60;;;8.30;91.40;;;;;;4968530;28;20688;-82
2022/04/28 06:06:24;;;;;;;26.30;17.87;;;8.30;91.30;;;;;;4969226;29;20647;-83
2022/04/28 06:08:51;;;;;;;30.10;19.80;;;8.40;90.40;;;;;;4966732;28;20555;-83
2022/04/28 06:11:18;;;;;;;26.93;19.73;;;8.60;89.50;;;;;;4947421;29;20449;-83
2022/04/28 06:13:45;;;;;;;26.90;18.07;;;8.70;85.30;;;;;;4961278;29;20447;-82
2022/04/28 06:16:11;;;;;;;30.57;19.97;;;8.60;82.50;;;;;;4967112;28;20484;-82
2022/04/28 06:18:39;;;;;;;27.75;23.00;;;8.80;83.40;;;;;;4957075;28;20463;-80
2022/04/28 06:21:07;;;;;;;27.67;20.53;;;8.80;82.60;;;;;;4955483;28;20460;-81
2022/04/28 06:23:34;;;;;;;26.30;19.13;;;8.80;83.20;;;;;;4955820;28;20455;-81
2022/04/28 06:26:00;;;;;;;32.73;20.80;;;8.70;83.10;;;;;;4956069;28;20945;-81
2022/04/28 06:28:27;;;;;;;26.67;17.07;;;8.70;82.90;;;;;;4955059;28;20526;-80
2022/04/28 06:30:54;;;;;;;27.23;18.97;;;8.90;84.30;;;;;;4953113;28;20467;-81
2022/04/28 06:33:21;;;;;;;36.80;23.13;;;8.80;82.20;;;;;;4955561;28;20466;-81
2022/04/28 06:35:48;;;;;;;32.63;20.80;;;8.80;81.90;;;;;;4956333;28;20460;-81
2022/04/28 06:38:16;;;;;;;33.97;23.27;;;8.90;84.20;;;;;;4955408;28;20483;-81
2022/04/28 06:40:43;;;;;;;28.70;19.70;;;8.90;85.90;;;;;;4955329;28;20463;-81
2022/04/28 06:43:09;;;;;;;28.10;18.80;;;8.90;84.70;;;;;;4955547;28;20487;-81
2022/04/28 06:45:37;;;;;;;28.30;21.73;;;9.10;82.10;;;;;;4955363;28;20451;-81
2022/04/28 06:48:04;;;;;;;35.20;23.13;;;9.10;84.20;;;;;;4955061;28;20971;-80
2022/04/28 06:50:31;;;;;;;41.07;21.57;;;9.10;77.30;;;;;;4954581;28;20476;-81
2022/04/28 06:52:58;;;;;;;34.37;20.97;;;9.20;77.20;;;;;;4954962;28;20460;-80
2022/04/28 06:55:26;;;;;;;31.10;20.77;;;9.30;77.30;;;;;;4955685;28;20452;-81
2022/04/28 06:57:53;;;;;;;32.00;19.57;;;9.50;77.50;;;;;;4956368;28;20479;-80
2022/04/28 07:00:20;;;;;;;32.23;20.73;;;9.40;77.40;;;;;;4954951;28;20498;-82
2022/04/28 07:02:46;;;;;;;33.53;21.90;;;9.60;77.60;;;;;;4956126;28;20466;-81
2022/04/28 07:05:13;;;;;;;33.60;23.63;;;9.60;76.90;;;;;;4954956;28;20460;-81
2022/04/28 07:07:40;;;;;;;29.40;20.67;;;9.80;78.80;;;;;;4955219;28;20544;-81
2022/04/28 07:10:08;;;;;;;34.30;23.00;;;9.80;77.20;;;;;;4955261;28;20483;-80
2022/04/28 07:12:36;;;;;;;34.97;22.30;;;9.90;77.80;;;;;;4955972;28;20472;-81
2022/04/28 07:15:03;;;;;;;38.17;23.43;;;10.00;75.00;;;;;;4955169;28;20456;-81
2022/04/28 07:17:30;;;;;;;33.57;21.87;;;10.20;77.10;;;;;;4954409;28;21000;-80
2022/04/28 07:19:56;;;;;;;34.50;22.50;;;10.20;72.50;;;;;;4953844;28;20482;-81
2022/04/28 07:22:23;;;;;;;34.57;19.77;;;10.40;72.20;;;;;;4954652;28;20837;-81
2022/04/28 07:24:50;;;;;;;36.13;20.60;;;10.30;74.20;;;;;;4954285;28;20842;-80
2022/04/28 07:27:16;;;;;;;31.30;23.40;;;10.40;71.50;;;;;;4954173;28;20455;-81
2022/04/28 07:29:44;;;;;;;33.77;21.27;;;10.40;69.80;;;;;;4952870;28;20475;-81
2022/04/28 07:32:11;;;;;;;30.97;21.47;;;10.50;73.70;;;;;;4954263;28;20459;-81
2022/04/28 07:34:38;;;;;;;34.77;17.83;;;10.70;69.00;;;;;;4956449;28;20467;-80
2022/04/28 07:37:05;;;;;;;40.90;21.47;;;10.70;65.60;;;;;;4956558;28;20487;-79
2022/04/28 07:39:32;;;;;;;33.70;21.47;;;11.00;65.70;;;;;;4959196;28;20506;-81
2022/04/28 07:41:59;;;;;;;34.70;20.80;;;10.90;62.30;;;;;;4954326;28;20467;-81
2022/04/28 07:44:26;;;;;;;33.63;21.40;;;11.00;61.70;;;;;;4955564;28;20991;-82
2022/04/28 07:46:56;;;;;;;33.83;21.40;;;11.10;60.50;;;;;;4963270;28;20802;-82
2022/04/28 07:49:24;;;;;;;44.30;18.03;;;11.20;62.00;;;;;;4961522;28;20516;-81
2022/04/28 07:51:51;;;;;;;27.83;19.00;;;11.20;58.00;;;;;;4958458;28;20559;-81
2022/04/28 07:54:17;;;;;;;30.57;20.33;;;11.50;54.80;;;;;;4956203;28;20464;-81
2022/04/28 07:56:45;;;;;;;27.87;20.50;;;11.70;56.30;;;;;;4956487;28;20484;-81
2022/04/28 07:59:12;;;;;;;37.30;23.30;;;11.80;51.70;;;;;;4953739;28;21027;-81
2022/04/28 08:01:39;;;;;;;28.00;21.70;;;12.20;50.40;;;;;;4954675;28;20467;-82
2022/04/28 08:04:07;;;;;;;33.30;20.80;;;12.40;48.30;;;;;;4954321;28;20541;-82
2022/04/28 08:06:34;;;;;;;29.20;19.83;;;12.70;47.30;;;;;;4956172;28;20460;-81
2022/04/28 08:09:00;;;;;;;26.80;17.07;;;13.10;44.50;;;;;;4954631;28;20479;-81
2022/04/28 08:11:27;;;;;;;29.33;19.10;;;13.20;42.50;;;;;;4954929;28;20459;-81
2022/04/28 08:13:54;;;;;;;24.80;20.40;;;13.30;42.10;;;;;;4956524;28;20960;-81
2022/04/28 08:16:20;;;;;;;28.53;19.93;;;13.30;41.60;;;;;;4955751;28;20539;-81
2022/04/28 08:18:47;;;;;;;31.73;21.90;;;13.70;40.30;;;;;;4953607;28;20488;-82
2022/04/28 08:21:15;;;;;;;29.20;20.57;;;14.00;40.90;;;;;;4955281;28;20466;-81
2022/04/28 08:23:42;;;;;;;25.67;20.57;;;14.30;43.10;;;;;;4954222;28;20458;-81
2022/04/28 08:26:09;;;;;;;27.10;20.43;;;14.60;38.90;;;;;;4954144;28;20459;-82
2022/04/28 08:28:35;;;;;;;35.00;19.83;;;15.00;33.60;;;;;;4953546;28;20493;-81
2022/04/28 08:31:02;;;;;;;27.43;21.80;;;15.00;33.40;;;;;;4954532;28;20460;-82
2022/04/28 08:33:29;;;;;;;29.40;19.37;;;15.10;35.20;;;;;;4956094;28;20461;-82
2022/04/28 08:35:55;;;;;;;29.57;21.17;;;15.10;30.50;;;;;;4955421;28;20456;-82
2022/04/28 08:38:24;;;;;;;26.70;21.50;;;15.10;32.40;;;;;;4954030;28;20482;-81
2022/04/28 08:40:56;;;;;;;23.53;17.00;;;15.00;30.70;;;;;;4955525;28;20494;-81
2022/04/28 08:43:22;;;;;;;32.53;21.67;;;15.20;30.80;;;;;;4954161;28;20850;-82
2022/04/28 08:48:46;;;;;;;27.97;18.07;;;15.60;28.70;;;;;;4953076;29;21013;-82
2022/04/28 08:51:13;;;;;;;22.30;17.77;;;16.00;29.30;;;;;;4953681;28;20451;-82
2022/04/28 08:53:43;;;;;;;26.33;17.73;;;16.00;26.60;;;;;;4956108;28;20463;-82
2022/04/28 08:56:10;;;;;;;25.30;17.30;;;16.00;26.80;;;;;;4957470;28;20456;-82
2022/04/28 09:01:05;;;;;;;24.47;18.50;;;15.90;26.70;;;;;;4992039;23;20542;-81
2022/04/28 09:03:32;;;;;;;26.57;19.47;;;16.10;26.80;;;;;;4940303;29;20462;-81
2022/04/28 09:06:16;;;;;;;26.53;16.70;;;16.10;26.80;;;;;;4940851;29;20832;-80
2022/04/28 09:08:45;;;;;;;26.80;18.03;;;16.50;27.20;;;;;;4939978;29;20462;-81
2022/04/28 09:11:18;;;;;;;30.60;17.83;;;16.10;24.20;;;;;;4959391;28;20552;-81
2022/04/28 09:16:33;;;;;;;23.27;16.10;;;16.90;21.10;;;;;;4959652;29;20479;-81
2022/04/28 09:19:00;;;;;;;21.40;17.83;;;16.90;20.90;;;;;;4958457;28;20484;-80
2022/04/28 09:21:27;;;;;;;22.13;15.47;;;17.20;18.70;;;;;;4958539;28;20458;-79
2022/04/28 09:23:56;;;;;;;22.93;17.93;;;17.20;18.60;;;;;;4958844;28;20461;-81
2022/04/28 09:26:24;;;;;;;23.77;16.03;;;17.50;17.90;;;;;;4958712;28;20456;-81
2022/04/28 09:28:53;;;;;;;21.63;16.17;;;17.60;19.20;;;;;;4958544;28;20513;-81
2022/04/28 09:31:23;;;;;;;23.07;19.00;;;17.40;18.20;;;;;;4960072;28;21026;-81
2022/04/28 09:33:50;;;;;;;22.47;15.80;;;17.60;19.40;;;;;;4959087;28;20454;-81
2022/04/28 09:36:18;;;;;;;21.67;16.57;;;17.20;16.10;;;;;;4957412;28;20857;-81
2022/04/28 09:38:45;;;;;;;25.30;17.83;;;17.90;18.20;;;;;;4957446;28;20485;-81
2022/04/28 09:44:06;;;;;;;23.43;17.43;;;17.90;14.80;;;;;;4936014;28;20858;-81
2022/04/28 09:46:39;;;;;;;24.83;18.77;;;18.00;13.40;;;;;;4959589;28;20455;-81
2022/04/28 09:49:06;;;;;;;22.70;15.67;;;18.50;15.40;;;;;;4958577;28;20478;-81
2022/04/28 09:51:36;;;;;;;23.03;18.00;;;17.90;12.00;;;;;;4959357;28;20451;-81
2022/04/28 09:54:08;;;;;;;23.20;18.40;;;17.80;10.60;;;;;;4959283;28;20543;-82
2022/04/28 09:56:37;;;;;;;19.70;14.80;;;18.10;13.20;;;;;;4959247;28;20491;-82
2022/04/28 09:59:06;;;;;;;24.57;16.17;;;17.80;8.60;;;;;;4958144;28;20497;-81
2022/04/28 10:01:33;;;;;;;23.40;17.73;;;18.30;7.40;;;;;;4959002;28;20485;-81
2022/04/28 10:04:00;;;;;;;19.50;16.40;;;18.10;8.20;;;;;;4958298;28;20462;-81
2022/04/28 10:06:31;;;;;;;23.07;15.80;;;18.90;7.40;;;;;;4958396;28;20459;-81
2022/04/28 10:08:59;;;;;;;20.93;14.97;;;18.30;6.90;;;;;;4958232;28;20453;-82
2022/04/28 10:11:27;;;;;;;18.53;15.00;;;18.60;10.00;;;;;;4958894;28;20452;-82
2022/04/28 10:13:56;;;;;;;22.87;15.50;;;18.40;7.30;;;;;;4958952;28;20459;-81
2022/04/28 10:16:25;;;;;;;24.07;17.00;;;18.60;3.50;;;;;;4958769;28;20966;-81
2022/04/28 10:18:56;;;;;;;20.07;13.53;;;18.10;5.70;;;;;;4957814;28;20485;-81
2022/04/28 10:21:29;;;;;;;21.97;16.87;;;18.20;5.90;;;;;;4958843;28;20834;-81
2022/04/28 10:32:55;;;;;;;20.13;17.83;;;18.90;4.90;;;;;;4958867;29;20520;-81
2022/04/28 10:35:38;;;;;;;20.60;15.03;;;19.50;4.70;;;;;;4958519;28;20978;-81
2022/04/28 10:38:13;;;;;;;24.93;16.27;;;19.50;4.20;;;;;;4956544;28;20568;-82
2022/04/28 10:40:41;;;;;;;21.87;17.70;;;19.50;4.20;;;;;;4960790;28;20477;-82
2022/04/28 10:43:23;;;;;;;21.17;15.07;;;19.50;4.20;;;;;;4960567;28;20838;-85
2022/04/28 10:45:52;;;;;;;19.37;16.00;;;18.90;3.70;;;;;;4964387;28;20490;-85
2022/04/28 10:48:25;;;;;;;23.00;17.03;;;18.60;3.60;;;;;;4963010;28;20546;-85
2022/04/28 10:51:11;;;;;;;17.10;14.10;;;19.50;2.20;;;;;;4964878;28;20494;-84
2022/04/28 10:53:59;;;;;;;18.10;13.13;;;19.40;2.70;;;;;;4964358;28;21104;-86
2022/04/28 10:56:26;;;;;;;20.37;14.00;;;19.00;3.80;;;;;;4965404;28;20835;-85
2022/04/28 10:58:58;;;;;;;24.73;16.87;;;19.00;3.40;;;;;;4962903;28;20514;-84
2022/04/28 11:01:28;;;;;;;21.63;16.70;;;19.60;1.80;;;;;;4964367;28;20465;-85
2022/04/28 11:03:56;;;;;;;25.47;16.07;;;19.60;4.20;;;;;;4961491;28;20466;-85
2022/04/28 11:06:27;;;;;;;17.20;13.17;;;19.90;1.20;;;;;;4963812;28;20468;-84
2022/04/28 11:08:56;;;;;;;17.70;14.43;;;20.00;2.30;;;;;;4963445;28;20481;-85
2022/04/28 11:11:28;;;;;;;18.73;15.37;;;19.10;3.00;;;;;;4965165;28;20458;-85
2022/04/28 11:13:57;;;;;;;19.17;14.40;;;19.30;1.00;;;;;;4965077;28;20522;-85
2022/04/28 11:16:26;;;;;;;24.57;18.00;;;19.30;1.00;;;;;;4964098;28;20457;-85
2022/04/28 11:18:54;;;;;;;19.83;15.00;;;19.40;1.30;;;;;;4959776;28;20450;-84
2022/04/28 11:21:22;;;;;;;24.03;15.17;;;19.40;1.00;;;;;;4958515;28;20532;-82
2022/04/28 11:23:51;;;;;;;17.37;15.10;;;20.00;1.00;;;;;;4957780;28;20463;-82
2022/04/28 11:26:19;;;;;;;18.90;14.03;;;19.90;1.00;;;;;;4957166;28;20458;-82
2022/04/28 11:28:46;;;;;;;22.30;14.80;;;20.60;1.00;;;;;;4956873;28;20486;-82
2022/04/28 11:31:16;;;;;;;20.10;14.93;;;20.10;1.00;;;;;;4957839;28;20463;-82
2022/04/28 11:33:47;;;;;;;19.10;13.30;;;20.20;1.00;;;;;;4957390;28;20462;-82
2022/04/28 11:36:18;;;;;;;25.00;15.83;;;20.00;1.00;;;;;;4955646;28;20459;-82
2022/04/28 11:38:54;;;;;;;28.07;15.77;;;19.70;1.00;;;;;;4956755;28;20455;-82
2022/04/28 11:41:34;;;;;;;19.43;15.10;;;20.00;1.00;;;;;;4957353;28;20834;-82
2022/04/28 11:44:05;;;;;;;15.83;13.37;;;20.60;1.00;;;;;;4957398;28;20895;-82
2022/04/28 11:46:32;;;;;;;17.53;12.00;;;20.80;1.00;;;;;;4957440;28;20493;-82
2022/04/28 11:49:00;;;;;;;19.13;14.70;;;20.40;1.00;;;;;;4956554;28;20483;-82
2022/04/28 11:51:27;;;;;;;24.70;15.17;;;20.80;1.00;;;;;;4958113;28;20467;-82
2022/04/28 11:53:54;;;;;;;22.93;16.43;;;21.00;1.00;;;;;;4957990;28;20462;-82
2022/04/28 11:56:24;;;;;;;17.97;12.33;;;20.60;1.00;;;;;;4957544;28;20462;-82
2022/04/28 11:58:52;;;;;;;20.00;13.67;;;21.00;1.00;;;;;;4962742;28;20555;-81
2022/04/28 12:01:20;;;;;;;17.80;12.63;;;20.90;1.00;;;;;;4960916;28;20468;-81
2022/04/28 12:03:55;;;;;;;22.13;13.47;;;20.80;1.00;;;;;;4965891;28;20788;-82
2022/04/28 12:06:25;;;;;;;17.33;12.77;;;21.30;1.00;;;;;;4969402;28;20454;-81
2022/04/28 12:08:54;;;;;;;17.67;13.60;;;20.90;1.00;;;;;;4957824;28;20479;-80
2022/04/28 12:14:25;;;;;;;19.20;14.03;;;20.80;1.00;;;;;;4957634;29;20494;-82
2022/04/28 12:19:54;;;;;;;19.80;12.83;;;21.00;1.00;;;;;;4955313;29;20547;-82
2022/04/28 12:22:35;;;;;;;16.77;13.90;;;20.70;1.00;;;;;;4956892;28;20852;-82
2022/04/28 12:25:13;;;;;;;15.93;11.03;;;21.50;1.00;;;;;;4957364;28;20459;-82
2022/04/28 12:27:45;;;;;;;20.33;12.73;;;21.30;1.00;;;;;;4958348;28;20459;-82
2022/04/28 12:30:14;;;;;;;18.53;12.77;;;21.90;1.00;;;;;;4960712;28;20484;-83
2022/04/28 12:32:47;;;;;;;16.50;12.33;;;21.60;1.00;;;;;;4961160;28;20489;-80
2022/04/28 12:35:27;;;;;;;16.70;11.00;;;21.50;1.00;;;;;;4960853;28;20456;-81
2022/04/28 12:38:01;;;;;;;20.13;13.40;;;21.30;1.00;;;;;;4960793;28;20452;-83
2022/04/28 12:40:36;;;;;;;21.73;13.77;;;21.70;1.00;;;;;;4960654;28;20479;-83
2022/04/28 12:43:03;;;;;;;17.40;12.50;;;22.30;1.00;;;;;;4960733;28;20510;-81
2022/04/28 12:45:40;;;;;;;23.43;14.40;;;21.80;1.00;;;;;;4960638;28;20877;-80
2022/04/28 12:48:09;;;;;;;19.27;14.40;;;21.40;1.00;;;;;;4960162;28;20463;-80
2022/04/28 12:50:35;;;;;;;16.80;11.53;;;21.60;1.00;;;;;;4959910;28;20515;-81
2022/04/28 12:53:04;;;;;;;19.83;12.47;;;21.60;1.00;;;;;;4960350;28;20455;-82
2022/04/28 12:55:36;;;;;;;16.37;10.87;;;20.80;1.00;;;;;;4960490;28;20459;-80
2022/04/28 12:58:03;;;;;;;17.50;13.50;;;21.10;1.00;;;;;;4960419;28;20487;-83
2022/04/28 13:00:37;;;;;;;23.00;13.43;;;20.80;1.00;;;;;;4959991;28;20487;-83
2022/04/28 13:03:05;;;;;;;14.10;10.43;;;21.50;1.00;;;;;;4960441;28;20971;-81
2022/04/28 13:05:32;;;;;;;17.20;10.97;;;21.80;1.00;;;;;;4960274;28;20460;-83
2022/04/28 13:07:59;;;;;;;17.97;12.60;;;21.20;1.00;;;;;;4959648;28;20463;-82
2022/04/28 13:10:27;;;;;;;15.00;9.33;;;22.20;1.00;;;;;;4959404;28;20476;-82
2022/04/28 13:12:54;;;;;;;12.90;10.63;;;21.50;1.00;;;;;;4959151;28;20470;-82